Terminal Aerodrome Forecast
Issued by NWS

Home | Current Version | Previous Version | Graphics & Text | Print | Product List | Glossary On
Versions: 1 2 3 4 5 6 7 8 9 10 11 12 13 14 15 16
000
FTUS43 KBIS 010525
TAFJMS
TAF
KJMS 010525Z 0106/0206 30006KT P6SM SCT080
     FM010800 29005KT P6SM SKC
     FM011700 26009KT P6SM SCT060
     FM020100 18007KT P6SM SKC=

USA.gov is the U.S. government's official web portal to all federal, state and local government web resources and services.